sensor_id;sensor_type;location;lat;lon;timestamp;P1;durP1;ratioP1;P2;durP2;ratioP2
17153;SDS011;8692;52.164;7.558;2022-10-30T00:02:09;6.33;;;4.70;;
17153;SDS011;8692;52.164;7.558;2022-10-30T00:04:37;10.13;;;5.80;;
17153;SDS011;8692;52.164;7.558;2022-10-30T00:07:05;6.27;;;5.20;;
17153;SDS011;8692;52.164;7.558;2022-10-30T00:09:36;6.10;;;4.73;;
17153;SDS011;8692;52.164;7.558;2022-10-30T00:12:04;8.60;;;5.47;;
17153;SDS011;8692;52.164;7.558;2022-10-30T00:14:36;11.03;;;5.67;;
17153;SDS011;8692;52.164;7.558;2022-10-30T00:17:04;7.53;;;4.80;;
17153;SDS011;8692;52.164;7.558;2022-10-30T00:19:32;6.13;;;4.40;;
17153;SDS011;8692;52.164;7.558;2022-10-30T00:22:00;11.87;;;5.40;;
17153;SDS011;8692;52.164;7.558;2022-10-30T00:24:30;8.77;;;5.37;;
17153;SDS011;8692;52.164;7.558;2022-10-30T00:26:58;7.83;;;5.10;;
17153;SDS011;8692;52.164;7.558;2022-10-30T00:29:28;10.50;;;4.57;;
17153;SDS011;8692;52.164;7.558;2022-10-30T00:31:58;7.43;;;5.07;;
17153;SDS011;8692;52.164;7.558;2022-10-30T00:34:26;6.70;;;4.43;;
17153;SDS011;8692;52.164;7.558;2022-10-30T00:36:54;9.17;;;4.83;;
17153;SDS011;8692;52.164;7.558;2022-10-30T00:39:22;8.30;;;4.97;;
17153;SDS011;8692;52.164;7.558;2022-10-30T00:41:51;7.30;;;5.07;;
17153;SDS011;8692;52.164;7.558;2022-10-30T00:44:31;6.67;;;5.00;;
17153;SDS011;8692;52.164;7.558;2022-10-30T00:47:05;7.03;;;4.80;;
17153;SDS011;8692;52.164;7.558;2022-10-30T00:49:40;6.50;;;4.67;;
17153;SDS011;8692;52.164;7.558;2022-10-30T00:52:18;8.13;;;4.67;;
17153;SDS011;8692;52.164;7.558;2022-10-30T00:54:49;7.17;;;5.10;;
17153;SDS011;8692;52.164;7.558;2022-10-30T00:57:18;7.45;;;4.90;;
17153;SDS011;8692;52.164;7.558;2022-10-30T00:59:47;8.67;;;4.53;;
17153;SDS011;8692;52.164;7.558;2022-10-30T01:02:17;7.87;;;4.67;;
17153;SDS011;8692;52.164;7.558;2022-10-30T01:04:47;8.90;;;5.03;;
17153;SDS011;8692;52.164;7.558;2022-10-30T01:07:17;6.73;;;4.97;;
17153;SDS011;8692;52.164;7.558;2022-10-30T01:09:46;7.47;;;4.90;;
17153;SDS011;8692;52.164;7.558;2022-10-30T01:12:14;6.73;;;5.20;;
17153;SDS011;8692;52.164;7.558;2022-10-30T01:14:44;5.73;;;4.57;;
17153;SDS011;8692;52.164;7.558;2022-10-30T01:17:26;9.83;;;5.13;;
17153;SDS011;8692;52.164;7.558;2022-10-30T01:20:22;6.40;;;4.60;;
17153;SDS011;8692;52.164;7.558;2022-10-30T01:23:05;6.47;;;4.93;;
17153;SDS011;8692;52.164;7.558;2022-10-30T01:25:46;7.27;;;4.90;;
17153;SDS011;8692;52.164;7.558;2022-10-30T01:28:23;8.83;;;5.20;;
17153;SDS011;8692;52.164;7.558;2022-10-30T01:31:01;8.43;;;5.57;;
17153;SDS011;8692;52.164;7.558;2022-10-30T01:33:42;7.77;;;4.80;;
17153;SDS011;8692;52.164;7.558;2022-10-30T01:36:21;6.40;;;4.20;;
17153;SDS011;8692;52.164;7.558;2022-10-30T01:38:57;8.37;;;4.70;;
17153;SDS011;8692;52.164;7.558;2022-10-30T01:41:29;7.20;;;5.00;;
17153;SDS011;8692;52.164;7.558;2022-10-30T01:43:59;6.00;;;5.43;;
17153;SDS011;8692;52.164;7.558;2022-10-30T01:46:34;9.87;;;5.53;;
17153;SDS011;8692;52.164;7.558;2022-10-30T01:52:26;7.10;;;4.97;;
17153;SDS011;8692;52.164;7.558;2022-10-30T01:55:04;6.87;;;5.20;;
17153;SDS011;8692;52.164;7.558;2022-10-30T01:57:40;7.07;;;5.70;;
17153;SDS011;8692;52.164;7.558;2022-10-30T02:00:15;7.93;;;5.50;;
17153;SDS011;8692;52.164;7.558;2022-10-30T02:02:46;6.83;;;4.97;;
17153;SDS011;8692;52.164;7.558;2022-10-30T02:05:21;7.87;;;5.33;;
17153;SDS011;8692;52.164;7.558;2022-10-30T02:07:56;9.97;;;5.50;;
17153;SDS011;8692;52.164;7.558;2022-10-30T02:10:25;8.77;;;5.83;;
17153;SDS011;8692;52.164;7.558;2022-10-30T02:12:54;6.70;;;5.30;;
17153;SDS011;8692;52.164;7.558;2022-10-30T02:15:23;6.60;;;4.80;;
17153;SDS011;8692;52.164;7.558;2022-10-30T02:17:52;6.63;;;5.33;;
17153;SDS011;8692;52.164;7.558;2022-10-30T02:20:26;6.43;;;4.80;;
17153;SDS011;8692;52.164;7.558;2022-10-30T02:22:57;8.47;;;5.20;;
17153;SDS011;8692;52.164;7.558;2022-10-30T02:25:30;6.73;;;5.30;;
17153;SDS011;8692;52.164;7.558;2022-10-30T02:28:01;7.83;;;5.47;;
17153;SDS011;8692;52.164;7.558;2022-10-30T02:30:29;6.57;;;5.07;;
17153;SDS011;8692;52.164;7.558;2022-10-30T02:33:00;8.23;;;4.70;;
17153;SDS011;8692;52.164;7.558;2022-10-30T02:35:29;7.47;;;5.03;;
17153;SDS011;8692;52.164;7.558;2022-10-30T02:37:58;7.07;;;5.17;;
17153;SDS011;8692;52.164;7.558;2022-10-30T02:40:26;6.53;;;5.00;;
17153;SDS011;8692;52.164;7.558;2022-10-30T02:42:55;7.40;;;5.40;;
17153;SDS011;8692;52.164;7.558;2022-10-30T02:45:23;5.87;;;5.20;;
17153;SDS011;8692;52.164;7.558;2022-10-30T02:47:52;5.70;;;4.40;;
17153;SDS011;8692;52.164;7.558;2022-10-30T02:50:23;6.33;;;4.53;;
17153;SDS011;8692;52.164;7.558;2022-10-30T02:52:55;5.97;;;5.27;;
17153;SDS011;8692;52.164;7.558;2022-10-30T02:55:28;7.53;;;4.57;;
17153;SDS011;8692;52.164;7.558;2022-10-30T02:57:56;7.23;;;5.13;;
17153;SDS011;8692;52.164;7.558;2022-10-30T03:00:28;8.97;;;4.80;;
17153;SDS011;8692;52.164;7.558;2022-10-30T03:02:56;5.60;;;4.77;;
17153;SDS011;8692;52.164;7.558;2022-10-30T03:05:25;5.30;;;4.57;;
17153;SDS011;8692;52.164;7.558;2022-10-30T03:07:57;6.97;;;5.37;;
17153;SDS011;8692;52.164;7.558;2022-10-30T03:10:28;7.10;;;5.00;;
17153;SDS011;8692;52.164;7.558;2022-10-30T03:12:58;7.93;;;4.67;;
17153;SDS011;8692;52.164;7.558;2022-10-30T03:15:26;8.13;;;4.93;;
17153;SDS011;8692;52.164;7.558;2022-10-30T03:17:56;7.77;;;5.10;;
17153;SDS011;8692;52.164;7.558;2022-10-30T03:20:25;9.63;;;5.00;;
17153;SDS011;8692;52.164;7.558;2022-10-30T03:22:53;5.83;;;5.20;;
17153;SDS011;8692;52.164;7.558;2022-10-30T03:25:23;6.60;;;5.37;;
17153;SDS011;8692;52.164;7.558;2022-10-30T03:27:54;5.73;;;4.73;;
17153;SDS011;8692;52.164;7.558;2022-10-30T03:30:23;7.50;;;4.57;;
17153;SDS011;8692;52.164;7.558;2022-10-30T03:32:51;6.97;;;5.17;;
17153;SDS011;8692;52.164;7.558;2022-10-30T03:35:19;6.50;;;4.67;;
17153;SDS011;8692;52.164;7.558;2022-10-30T03:37:48;5.70;;;5.00;;
17153;SDS011;8692;52.164;7.558;2022-10-30T03:40:17;5.40;;;4.87;;
17153;SDS011;8692;52.164;7.558;2022-10-30T03:42:49;9.37;;;5.43;;
17153;SDS011;8692;52.164;7.558;2022-10-30T03:45:18;7.40;;;5.00;;
17153;SDS011;8692;52.164;7.558;2022-10-30T03:47:46;7.40;;;5.37;;
17153;SDS011;8692;52.164;7.558;2022-10-30T03:50:16;6.30;;;5.23;;
17153;SDS011;8692;52.164;7.558;2022-10-30T03:52:44;6.73;;;5.40;;
17153;SDS011;8692;52.164;7.558;2022-10-30T03:55:13;6.97;;;4.90;;
17153;SDS011;8692;52.164;7.558;2022-10-30T03:57:41;6.67;;;4.60;;
17153;SDS011;8692;52.164;7.558;2022-10-30T04:00:15;7.67;;;5.03;;
17153;SDS011;8692;52.164;7.558;2022-10-30T04:02:54;6.57;;;5.17;;
17153;SDS011;8692;52.164;7.558;2022-10-30T04:05:24;6.27;;;4.87;;
17153;SDS011;8692;52.164;7.558;2022-10-30T04:07:56;7.47;;;5.10;;
17153;SDS011;8692;52.164;7.558;2022-10-30T04:10:26;5.30;;;4.77;;
17153;SDS011;8692;52.164;7.558;2022-10-30T04:12:58;7.30;;;5.50;;
17153;SDS011;8692;52.164;7.558;2022-10-30T04:15:31;7.07;;;5.07;;
17153;SDS011;8692;52.164;7.558;2022-10-30T04:18:00;5.80;;;4.57;;
17153;SDS011;8692;52.164;7.558;2022-10-30T04:20:31;7.97;;;4.90;;
17153;SDS011;8692;52.164;7.558;2022-10-30T04:23:00;6.60;;;4.57;;
17153;SDS011;8692;52.164;7.558;2022-10-30T04:25:29;5.50;;;4.53;;
17153;SDS011;8692;52.164;7.558;2022-10-30T04:27:58;6.60;;;5.40;;
17153;SDS011;8692;52.164;7.558;2022-10-30T04:30:30;5.77;;;5.10;;
17153;SDS011;8692;52.164;7.558;2022-10-30T04:33:00;6.33;;;4.83;;
17153;SDS011;8692;52.164;7.558;2022-10-30T04:35:32;6.37;;;4.67;;
17153;SDS011;8692;52.164;7.558;2022-10-30T04:38:09;8.60;;;5.57;;
17153;SDS011;8692;52.164;7.558;2022-10-30T04:40:40;6.07;;;5.17;;
17153;SDS011;8692;52.164;7.558;2022-10-30T04:43:11;7.30;;;5.60;;
17153;SDS011;8692;52.164;7.558;2022-10-30T04:45:46;6.90;;;5.57;;
17153;SDS011;8692;52.164;7.558;2022-10-30T04:48:15;5.93;;;4.60;;
17153;SDS011;8692;52.164;7.558;2022-10-30T04:50:45;6.97;;;5.07;;
17153;SDS011;8692;52.164;7.558;2022-10-30T04:53:21;7.20;;;4.57;;
17153;SDS011;8692;52.164;7.558;2022-10-30T04:55:55;6.17;;;4.77;;
17153;SDS011;8692;52.164;7.558;2022-10-30T04:58:25;6.90;;;4.70;;
17153;SDS011;8692;52.164;7.558;2022-10-30T05:01:04;9.03;;;5.03;;
17153;SDS011;8692;52.164;7.558;2022-10-30T05:03:34;6.20;;;4.77;;
17153;SDS011;8692;52.164;7.558;2022-10-30T05:06:12;4.93;;;4.43;;
17153;SDS011;8692;52.164;7.558;2022-10-30T05:08:46;6.70;;;4.90;;
17153;SDS011;8692;52.164;7.558;2022-10-30T05:11:26;5.97;;;4.50;;
17153;SDS011;8692;52.164;7.558;2022-10-30T05:13:55;5.63;;;4.77;;
17153;SDS011;8692;52.164;7.558;2022-10-30T05:16:25;7.33;;;5.33;;
17153;SDS011;8692;52.164;7.558;2022-10-30T05:18:57;6.47;;;5.03;;
17153;SDS011;8692;52.164;7.558;2022-10-30T05:21:26;6.27;;;4.90;;
17153;SDS011;8692;52.164;7.558;2022-10-30T05:23:56;8.20;;;4.93;;
17153;SDS011;8692;52.164;7.558;2022-10-30T05:26:29;5.60;;;5.00;;
17153;SDS011;8692;52.164;7.558;2022-10-30T05:28:57;5.77;;;5.17;;
17153;SDS011;8692;52.164;7.558;2022-10-30T05:31:26;6.63;;;5.33;;
17153;SDS011;8692;52.164;7.558;2022-10-30T05:34:04;6.20;;;4.83;;
17153;SDS011;8692;52.164;7.558;2022-10-30T05:36:35;5.43;;;4.93;;
17153;SDS011;8692;52.164;7.558;2022-10-30T05:39:04;8.33;;;5.07;;
17153;SDS011;8692;52.164;7.558;2022-10-30T05:41:38;5.80;;;4.60;;
17153;SDS011;8692;52.164;7.558;2022-10-30T05:44:07;5.80;;;5.20;;
17153;SDS011;8692;52.164;7.558;2022-10-30T05:46:40;6.37;;;5.00;;
17153;SDS011;8692;52.164;7.558;2022-10-30T05:49:20;6.80;;;5.17;;
17153;SDS011;8692;52.164;7.558;2022-10-30T05:51:48;6.10;;;5.00;;
17153;SDS011;8692;52.164;7.558;2022-10-30T05:54:16;7.77;;;5.10;;
17153;SDS011;8692;52.164;7.558;2022-10-30T05:56:57;7.07;;;4.87;;
17153;SDS011;8692;52.164;7.558;2022-10-30T05:59:25;6.90;;;4.97;;
17153;SDS011;8692;52.164;7.558;2022-10-30T06:01:56;7.73;;;5.80;;
17153;SDS011;8692;52.164;7.558;2022-10-30T06:04:25;6.30;;;5.40;;
17153;SDS011;8692;52.164;7.558;2022-10-30T06:06:53;7.07;;;5.73;;
17153;SDS011;8692;52.164;7.558;2022-10-30T06:09:21;8.17;;;5.40;;
17153;SDS011;8692;52.164;7.558;2022-10-30T06:11:52;6.03;;;5.43;;
17153;SDS011;8692;52.164;7.558;2022-10-30T06:14:32;7.77;;;5.47;;
17153;SDS011;8692;52.164;7.558;2022-10-30T06:17:03;8.17;;;5.60;;
17153;SDS011;8692;52.164;7.558;2022-10-30T06:19:32;7.37;;;5.37;;
17153;SDS011;8692;52.164;7.558;2022-10-30T06:22:20;7.63;;;5.07;;
17153;SDS011;8692;52.164;7.558;2022-10-30T06:24:55;6.40;;;4.77;;
17153;SDS011;8692;52.164;7.558;2022-10-30T06:27:46;6.37;;;5.73;;
17153;SDS011;8692;52.164;7.558;2022-10-30T06:30:15;8.07;;;5.80;;
17153;SDS011;8692;52.164;7.558;2022-10-30T06:32:45;8.83;;;5.47;;
17153;SDS011;8692;52.164;7.558;2022-10-30T06:35:13;6.60;;;5.30;;
17153;SDS011;8692;52.164;7.558;2022-10-30T06:37:45;7.70;;;5.83;;
17153;SDS011;8692;52.164;7.558;2022-10-30T06:40:14;7.30;;;5.70;;
17153;SDS011;8692;52.164;7.558;2022-10-30T06:43:01;6.80;;;5.07;;
17153;SDS011;8692;52.164;7.558;2022-10-30T06:45:42;6.23;;;5.40;;
17153;SDS011;8692;52.164;7.558;2022-10-30T06:48:12;9.10;;;5.40;;
17153;SDS011;8692;52.164;7.558;2022-10-30T06:50:45;8.20;;;6.10;;
17153;SDS011;8692;52.164;7.558;2022-10-30T06:53:13;7.87;;;5.77;;
17153;SDS011;8692;52.164;7.558;2022-10-30T06:55:42;7.63;;;5.53;;
17153;SDS011;8692;52.164;7.558;2022-10-30T06:58:24;7.70;;;5.23;;
17153;SDS011;8692;52.164;7.558;2022-10-30T07:01:02;8.40;;;6.07;;
17153;SDS011;8692;52.164;7.558;2022-10-30T07:03:57;7.57;;;5.33;;
17153;SDS011;8692;52.164;7.558;2022-10-30T07:06:28;7.30;;;5.63;;
17153;SDS011;8692;52.164;7.558;2022-10-30T07:08:57;6.50;;;5.73;;
17153;SDS011;8692;52.164;7.558;2022-10-30T07:11:25;7.23;;;5.60;;
17153;SDS011;8692;52.164;7.558;2022-10-30T07:13:56;8.20;;;5.83;;
17153;SDS011;8692;52.164;7.558;2022-10-30T07:16:40;8.93;;;5.93;;
17153;SDS011;8692;52.164;7.558;2022-10-30T07:19:12;8.37;;;6.03;;
17153;SDS011;8692;52.164;7.558;2022-10-30T07:21:41;6.37;;;5.57;;
17153;SDS011;8692;52.164;7.558;2022-10-30T07:24:09;8.10;;;5.87;;
17153;SDS011;8692;52.164;7.558;2022-10-30T07:26:55;6.80;;;5.67;;
17153;SDS011;8692;52.164;7.558;2022-10-30T07:29:42;8.70;;;5.63;;
17153;SDS011;8692;52.164;7.558;2022-10-30T07:32:23;6.47;;;5.37;;
17153;SDS011;8692;52.164;7.558;2022-10-30T07:35:14;8.27;;;6.10;;
17153;SDS011;8692;52.164;7.558;2022-10-30T07:38:01;10.37;;;6.07;;
17153;SDS011;8692;52.164;7.558;2022-10-30T07:40:50;8.70;;;6.13;;
17153;SDS011;8692;52.164;7.558;2022-10-30T07:43:42;8.40;;;6.30;;
17153;SDS011;8692;52.164;7.558;2022-10-30T07:46:46;7.23;;;5.80;;
17153;SDS011;8692;52.164;7.558;2022-10-30T07:49:26;10.20;;;5.77;;
17153;SDS011;8692;52.164;7.558;2022-10-30T07:51:59;10.17;;;5.63;;
17153;SDS011;8692;52.164;7.558;2022-10-30T07:54:27;8.30;;;6.07;;
17153;SDS011;8692;52.164;7.558;2022-10-30T07:57:02;7.67;;;5.70;;
17153;SDS011;8692;52.164;7.558;2022-10-30T07:59:59;10.37;;;6.50;;
17153;SDS011;8692;52.164;7.558;2022-10-30T08:02:39;8.27;;;6.17;;
17153;SDS011;8692;52.164;7.558;2022-10-30T08:05:22;9.00;;;6.00;;
17153;SDS011;8692;52.164;7.558;2022-10-30T08:08:08;8.43;;;6.03;;
17153;SDS011;8692;52.164;7.558;2022-10-30T08:10:36;12.50;;;7.07;;
17153;SDS011;8692;52.164;7.558;2022-10-30T08:13:04;10.70;;;7.03;;
17153;SDS011;8692;52.164;7.558;2022-10-30T08:15:35;12.07;;;6.47;;
17153;SDS011;8692;52.164;7.558;2022-10-30T08:18:07;14.37;;;6.67;;
17153;SDS011;8692;52.164;7.558;2022-10-30T08:20:39;10.40;;;7.00;;
17153;SDS011;8692;52.164;7.558;2022-10-30T08:23:10;9.33;;;6.63;;
17153;SDS011;8692;52.164;7.558;2022-10-30T08:25:41;12.77;;;6.43;;
17153;SDS011;8692;52.164;7.558;2022-10-30T08:28:10;10.73;;;6.93;;
17153;SDS011;8692;52.164;7.558;2022-10-30T08:30:42;8.73;;;7.23;;
17153;SDS011;8692;52.164;7.558;2022-10-30T08:33:13;8.97;;;7.13;;
17153;SDS011;8692;52.164;7.558;2022-10-30T08:35:47;10.67;;;7.50;;
17153;SDS011;8692;52.164;7.558;2022-10-30T08:38:20;11.07;;;7.17;;
17153;SDS011;8692;52.164;7.558;2022-10-30T08:41:01;11.53;;;7.83;;
17153;SDS011;8692;52.164;7.558;2022-10-30T08:43:31;11.27;;;7.47;;
17153;SDS011;8692;52.164;7.558;2022-10-30T08:45:59;10.37;;;7.10;;
17153;SDS011;8692;52.164;7.558;2022-10-30T08:48:28;18.07;;;9.27;;
17153;SDS011;8692;52.164;7.558;2022-10-30T08:50:56;11.87;;;8.27;;
17153;SDS011;8692;52.164;7.558;2022-10-30T08:53:33;12.50;;;8.00;;
17153;SDS011;8692;52.164;7.558;2022-10-30T08:56:06;10.97;;;7.40;;
17153;SDS011;8692;52.164;7.558;2022-10-30T08:58:48;12.90;;;7.60;;
17153;SDS011;8692;52.164;7.558;2022-10-30T09:01:17;10.47;;;7.80;;
17153;SDS011;8692;52.164;7.558;2022-10-30T09:04:20;13.20;;;7.63;;
17153;SDS011;8692;52.164;7.558;2022-10-30T09:07:04;12.60;;;7.47;;
17153;SDS011;8692;52.164;7.558;2022-10-30T09:09:58;14.07;;;7.83;;
17153;SDS011;8692;52.164;7.558;2022-10-30T09:12:30;14.23;;;8.30;;
17153;SDS011;8692;52.164;7.558;2022-10-30T09:14:59;13.80;;;7.83;;
17153;SDS011;8692;52.164;7.558;2022-10-30T09:17:29;14.97;;;7.30;;
17153;SDS011;8692;52.164;7.558;2022-10-30T09:19:57;18.60;;;7.87;;
17153;SDS011;8692;52.164;7.558;2022-10-30T09:22:33;16.37;;;8.00;;
17153;SDS011;8692;52.164;7.558;2022-10-30T09:25:06;15.40;;;8.73;;
17153;SDS011;8692;52.164;7.558;2022-10-30T09:27:47;14.40;;;7.57;;
17153;SDS011;8692;52.164;7.558;2022-10-30T09:30:17;16.03;;;8.10;;
17153;SDS011;8692;52.164;7.558;2022-10-30T09:32:53;10.90;;;7.67;;
17153;SDS011;8692;52.164;7.558;2022-10-30T09:35:34;11.53;;;7.13;;
17153;SDS011;8692;52.164;7.558;2022-10-30T09:38:05;9.27;;;6.87;;
17153;SDS011;8692;52.164;7.558;2022-10-30T09:40:40;13.13;;;7.87;;
17153;SDS011;8692;52.164;7.558;2022-10-30T09:43:23;13.93;;;7.50;;
17153;SDS011;8692;52.164;7.558;2022-10-30T09:49:07;17.80;;;7.53;;
17153;SDS011;8692;52.164;7.558;2022-10-30T09:55:03;18.73;;;8.27;;
17153;SDS011;8692;52.164;7.558;2022-10-30T09:57:45;15.67;;;7.47;;
17153;SDS011;8692;52.164;7.558;2022-10-30T10:00:17;10.97;;;7.27;;
17153;SDS011;8692;52.164;7.558;2022-10-30T10:02:55;12.47;;;6.67;;
17153;SDS011;8692;52.164;7.558;2022-10-30T10:05:42;10.53;;;6.90;;
17153;SDS011;8692;52.164;7.558;2022-10-30T10:08:32;10.97;;;7.03;;
17153;SDS011;8692;52.164;7.558;2022-10-30T10:11:24;14.03;;;7.10;;
17153;SDS011;8692;52.164;7.558;2022-10-30T10:13:58;15.37;;;6.77;;
17153;SDS011;8692;52.164;7.558;2022-10-30T10:16:34;11.47;;;6.97;;
17153;SDS011;8692;52.164;7.558;2022-10-30T10:19:07;13.00;;;7.53;;
17153;SDS011;8692;52.164;7.558;2022-10-30T10:21:42;12.73;;;7.53;;
17153;SDS011;8692;52.164;7.558;2022-10-30T10:24:13;10.83;;;6.57;;
17153;SDS011;8692;52.164;7.558;2022-10-30T10:26:46;12.53;;;6.43;;
17153;SDS011;8692;52.164;7.558;2022-10-30T10:29:28;14.93;;;6.83;;
17153;SDS011;8692;52.164;7.558;2022-10-30T10:32:15;13.73;;;6.87;;
17153;SDS011;8692;52.164;7.558;2022-10-30T10:35:06;15.03;;;7.80;;
17153;SDS011;8692;52.164;7.558;2022-10-30T10:37:56;15.30;;;6.63;;
17153;SDS011;8692;52.164;7.558;2022-10-30T10:40:33;11.07;;;7.07;;
17153;SDS011;8692;52.164;7.558;2022-10-30T10:43:13;15.40;;;7.13;;
17153;SDS011;8692;52.164;7.558;2022-10-30T10:45:52;13.20;;;7.43;;
17153;SDS011;8692;52.164;7.558;2022-10-30T10:48:32;17.27;;;6.87;;
17153;SDS011;8692;52.164;7.558;2022-10-30T10:51:19;12.63;;;7.10;;
17153;SDS011;8692;52.164;7.558;2022-10-30T10:53:56;10.87;;;6.30;;
17153;SDS011;8692;52.164;7.558;2022-10-30T10:56:28;14.20;;;7.03;;
17153;SDS011;8692;52.164;7.558;2022-10-30T10:59:03;14.90;;;6.13;;
17153;SDS011;8692;52.164;7.558;2022-10-30T11:01:50;10.27;;;5.50;;
17153;SDS011;8692;52.164;7.558;2022-10-30T11:04:25;12.23;;;5.63;;
17153;SDS011;8692;52.164;7.558;2022-10-30T11:06:58;13.10;;;6.67;;
17153;SDS011;8692;52.164;7.558;2022-10-30T11:09:37;12.40;;;5.87;;
17153;SDS011;8692;52.164;7.558;2022-10-30T11:12:07;11.60;;;5.87;;
17153;SDS011;8692;52.164;7.558;2022-10-30T11:14:37;13.47;;;6.03;;
17153;SDS011;8692;52.164;7.558;2022-10-30T11:17:09;12.43;;;6.33;;
17153;SDS011;8692;52.164;7.558;2022-10-30T11:19:48;9.83;;;5.33;;
17153;SDS011;8692;52.164;7.558;2022-10-30T11:22:22;14.20;;;5.50;;
17153;SDS011;8692;52.164;7.558;2022-10-30T11:24:53;12.23;;;5.83;;
17153;SDS011;8692;52.164;7.558;2022-10-30T11:27:24;10.17;;;5.27;;
17153;SDS011;8692;52.164;7.558;2022-10-30T11:29:56;13.70;;;5.90;;
17153;SDS011;8692;52.164;7.558;2022-10-30T11:32:28;9.07;;;5.00;;
17153;SDS011;8692;52.164;7.558;2022-10-30T11:34:59;11.27;;;5.47;;
17153;SDS011;8692;52.164;7.558;2022-10-30T11:37:30;13.83;;;5.73;;
17153;SDS011;8692;52.164;7.558;2022-10-30T11:40:03;10.53;;;5.90;;
17153;SDS011;8692;52.164;7.558;2022-10-30T11:42:36;15.97;;;6.03;;
17153;SDS011;8692;52.164;7.558;2022-10-30T11:45:07;14.83;;;6.37;;
17153;SDS011;8692;52.164;7.558;2022-10-30T11:47:44;11.90;;;5.17;;
17153;SDS011;8692;52.164;7.558;2022-10-30T11:50:15;12.87;;;5.67;;
17153;SDS011;8692;52.164;7.558;2022-10-30T11:52:46;10.67;;;5.43;;
17153;SDS011;8692;52.164;7.558;2022-10-30T11:55:18;12.20;;;5.53;;
17153;SDS011;8692;52.164;7.558;2022-10-30T11:57:54;14.40;;;6.07;;
17153;SDS011;8692;52.164;7.558;2022-10-30T12:00:25;10.23;;;5.67;;
17153;SDS011;8692;52.164;7.558;2022-10-30T12:02:57;12.17;;;5.53;;
17153;SDS011;8692;52.164;7.558;2022-10-30T12:05:28;10.17;;;5.30;;
17153;SDS011;8692;52.164;7.558;2022-10-30T12:08:15;9.60;;;5.13;;
17153;SDS011;8692;52.164;7.558;2022-10-30T12:10:45;11.20;;;6.00;;
17153;SDS011;8692;52.164;7.558;2022-10-30T12:13:22;13.17;;;5.63;;
17153;SDS011;8692;52.164;7.558;2022-10-30T12:16:02;9.77;;;5.70;;
17153;SDS011;8692;52.164;7.558;2022-10-30T12:18:39;11.73;;;5.57;;
17153;SDS011;8692;52.164;7.558;2022-10-30T12:21:08;10.23;;;6.47;;
17153;SDS011;8692;52.164;7.558;2022-10-30T12:23:39;12.03;;;5.57;;
17153;SDS011;8692;52.164;7.558;2022-10-30T12:26:08;10.70;;;5.17;;
17153;SDS011;8692;52.164;7.558;2022-10-30T12:28:38;13.23;;;6.40;;
17153;SDS011;8692;52.164;7.558;2022-10-30T12:31:09;17.07;;;5.83;;
17153;SDS011;8692;52.164;7.558;2022-10-30T12:33:44;20.70;;;6.43;;
17153;SDS011;8692;52.164;7.558;2022-10-30T12:36:18;11.77;;;5.40;;
17153;SDS011;8692;52.164;7.558;2022-10-30T12:38:51;9.53;;;5.30;;
17153;SDS011;8692;52.164;7.558;2022-10-30T12:41:26;11.40;;;5.20;;
17153;SDS011;8692;52.164;7.558;2022-10-30T12:44:02;9.87;;;5.10;;
17153;SDS011;8692;52.164;7.558;2022-10-30T12:46:37;11.23;;;5.40;;
17153;SDS011;8692;52.164;7.558;2022-10-30T12:49:15;11.10;;;5.53;;
17153;SDS011;8692;52.164;7.558;2022-10-30T12:51:50;14.97;;;5.57;;
17153;SDS011;8692;52.164;7.558;2022-10-30T12:54:29;8.70;;;5.70;;
17153;SDS011;8692;52.164;7.558;2022-10-30T12:57:04;8.70;;;4.77;;
17153;SDS011;8692;52.164;7.558;2022-10-30T12:59:38;10.23;;;4.57;;
17153;SDS011;8692;52.164;7.558;2022-10-30T13:02:15;11.20;;;5.63;;
17153;SDS011;8692;52.164;7.558;2022-10-30T13:04:56;8.60;;;5.23;;
17153;SDS011;8692;52.164;7.558;2022-10-30T13:07:33;10.07;;;5.33;;
17153;SDS011;8692;52.164;7.558;2022-10-30T13:10:11;12.83;;;5.53;;
17153;SDS011;8692;52.164;7.558;2022-10-30T13:12:52;10.47;;;4.83;;
17153;SDS011;8692;52.164;7.558;2022-10-30T13:15:28;10.63;;;5.83;;
17153;SDS011;8692;52.164;7.558;2022-10-30T13:18:05;13.13;;;5.07;;
17153;SDS011;8692;52.164;7.558;2022-10-30T13:20:41;9.03;;;4.60;;
17153;SDS011;8692;52.164;7.558;2022-10-30T13:23:19;11.03;;;5.00;;
17153;SDS011;8692;52.164;7.558;2022-10-30T13:25:55;15.10;;;5.30;;
17153;SDS011;8692;52.164;7.558;2022-10-30T13:28:32;8.23;;;5.33;;
17153;SDS011;8692;52.164;7.558;2022-10-30T13:31:08;8.93;;;5.43;;
17153;SDS011;8692;52.164;7.558;2022-10-30T13:33:44;10.73;;;5.20;;
17153;SDS011;8692;52.164;7.558;2022-10-30T13:36:21;16.53;;;5.87;;
17153;SDS011;8692;52.164;7.558;2022-10-30T13:38:56;9.50;;;4.73;;
17153;SDS011;8692;52.164;7.558;2022-10-30T13:41:33;12.17;;;5.07;;
17153;SDS011;8692;52.164;7.558;2022-10-30T13:44:12;10.67;;;5.10;;
17153;SDS011;8692;52.164;7.558;2022-10-30T13:46:57;11.23;;;4.87;;
17153;SDS011;8692;52.164;7.558;2022-10-30T13:49:46;10.27;;;4.93;;
17153;SDS011;8692;52.164;7.558;2022-10-30T13:52:26;14.97;;;5.23;;
17153;SDS011;8692;52.164;7.558;2022-10-30T13:54:58;11.43;;;4.80;;
17153;SDS011;8692;52.164;7.558;2022-10-30T13:57:31;7.87;;;4.80;;
17153;SDS011;8692;52.164;7.558;2022-10-30T14:00:05;9.33;;;4.90;;
17153;SDS011;8692;52.164;7.558;2022-10-30T14:02:50;10.20;;;4.47;;
17153;SDS011;8692;52.164;7.558;2022-10-30T14:05:41;10.37;;;4.23;;
17153;SDS011;8692;52.164;7.558;2022-10-30T14:08:19;9.60;;;5.10;;
17153;SDS011;8692;52.164;7.558;2022-10-30T14:10:59;9.80;;;4.77;;
17153;SDS011;8692;52.164;7.558;2022-10-30T14:13:43;5.83;;;4.20;;
17153;SDS011;8692;52.164;7.558;2022-10-30T14:16:29;6.10;;;3.90;;
17153;SDS011;8692;52.164;7.558;2022-10-30T14:19:00;11.03;;;4.53;;
17153;SDS011;8692;52.164;7.558;2022-10-30T14:21:33;10.50;;;5.17;;
17153;SDS011;8692;52.164;7.558;2022-10-30T14:24:12;8.70;;;4.40;;
17153;SDS011;8692;52.164;7.558;2022-10-30T14:26:48;7.07;;;4.20;;
17153;SDS011;8692;52.164;7.558;2022-10-30T14:29:29;6.93;;;4.67;;
17153;SDS011;8692;52.164;7.558;2022-10-30T14:35:23;9.27;;;5.07;;
17153;SDS011;8692;52.164;7.558;2022-10-30T14:41:05;8.60;;;4.33;;
17153;SDS011;8692;52.164;7.558;2022-10-30T14:44:03;9.90;;;4.50;;
17153;SDS011;8692;52.164;7.558;2022-10-30T14:46:43;7.47;;;4.00;;
17153;SDS011;8692;52.164;7.558;2022-10-30T14:49:35;6.90;;;4.27;;
17153;SDS011;8692;52.164;7.558;2022-10-30T14:52:12;5.77;;;4.57;;
17153;SDS011;8692;52.164;7.558;2022-10-30T14:54:49;8.67;;;4.30;;
17153;SDS011;8692;52.164;7.558;2022-10-30T15:00:36;4.40;;;3.53;;
17153;SDS011;8692;52.164;7.558;2022-10-30T15:03:21;6.40;;;4.40;;
17153;SDS011;8692;52.164;7.558;2022-10-30T15:06:05;5.87;;;4.37;;
17153;SDS011;8692;52.164;7.558;2022-10-30T15:08:51;6.47;;;4.30;;
17153;SDS011;8692;52.164;7.558;2022-10-30T15:11:42;7.93;;;4.67;;
17153;SDS011;8692;52.164;7.558;2022-10-30T15:14:27;8.73;;;4.27;;
17153;SDS011;8692;52.164;7.558;2022-10-30T15:17:20;8.80;;;4.87;;
17153;SDS011;8692;52.164;7.558;2022-10-30T15:19:54;10.47;;;5.50;;
17153;SDS011;8692;52.164;7.558;2022-10-30T15:22:25;6.40;;;4.90;;
17153;SDS011;8692;52.164;7.558;2022-10-30T15:24:55;6.23;;;5.03;;
17153;SDS011;8692;52.164;7.558;2022-10-30T15:27:24;6.80;;;5.17;;
17153;SDS011;8692;52.164;7.558;2022-10-30T15:29:56;7.57;;;5.03;;
17153;SDS011;8692;52.164;7.558;2022-10-30T15:32:28;10.50;;;4.60;;
17153;SDS011;8692;52.164;7.558;2022-10-30T15:34:56;15.23;;;5.87;;
17153;SDS011;8692;52.164;7.558;2022-10-30T15:37:26;14.17;;;11.77;;
17153;SDS011;8692;52.164;7.558;2022-10-30T15:40:13;17.83;;;14.53;;
17153;SDS011;8692;52.164;7.558;2022-10-30T15:45:33;58.47;;;46.50;;
17153;SDS011;8692;52.164;7.558;2022-10-30T15:48:04;49.00;;;40.23;;
17153;SDS011;8692;52.164;7.558;2022-10-30T15:50:35;41.47;;;30.53;;
17153;SDS011;8692;52.164;7.558;2022-10-30T15:53:13;29.57;;;25.90;;
17153;SDS011;8692;52.164;7.558;2022-10-30T15:55:44;23.80;;;20.20;;
17153;SDS011;8692;52.164;7.558;2022-10-30T15:58:14;20.37;;;14.53;;
17153;SDS011;8692;52.164;7.558;2022-10-30T16:00:54;17.70;;;13.93;;
17153;SDS011;8692;52.164;7.558;2022-10-30T16:03:26;14.43;;;12.93;;